Bowmansville, New York
Current Conditions -  °F | °C
As of 10:54 AM on Thursday 29 Jan 2015 (Local Time) from KBUF Reporting Station
Overcast Overcast  
Wind Chill: 24°   Ceiling: 7000
Heat Index: 32°   Visibility: 10mi
Dew Point:   Wind: 10mph
Humidity: 37%   Direction: 150°SSE
Pressure: 29.87"   Gusts: NA
Location:  42.94°N, 78.68°W
Report Text: KBUF 291554Z 15009KT 10SM FEW041 FEW055 OVC070 00/M13 A2987 RMK AO2 SLP125 VIRGA OHD-ALQDS T00001133
Loading
Personal Weather Stations






























Interactive Weather Map New forecast layout! Learn more

10-Day Weather Forecast

Advertisements
Track Severe Weather on mobile